Ziguinchor, Ziguinchor Airport (GOGG)

NameZiguinchor Airport
CityZiguinchor
CountrySenegal
ICAOGOGG
IATAZIG
Altitude7 m
CoordinatesGoogle Map
Live Air TrafficLiveATC.net
METARGOGG 251700Z 27008KT CAVOK 36/17 Q1011
2020-04-25 17:00:00 Wind: West (270°) 4.12 m/s - Visibility: > 10000 m - Weather: CAVOK - Temperature: 36 °C - Dew point: 17 °C - Humidity: 32.3% - Pressure: 1011 hPa
Statistics

The table below shows the detailed information of all flights to/from Ziguinchor, Ziguinchor Airport (GOGG).